Time;durP1;ratioP1;P1;durP2;ratioP2;P2;SDS_P1;SDS_P2;PMS_P1;PMS_P2;Temp;Humidity;BMP_temperature;BMP_pressure;BME280_temperature;BME280_humidity;BME280_pressure;Samples;Min_cycle;Max_cycle;Signal;HPM_P1;HPM_P2
2021/04/28 00:01:05;;;;;;;23.13;16.85;;;;;;;7.41;94.30;97377.69;5071739;28;20057;-76
2021/04/28 00:03:31;;;;;;;19.20;14.77;;;;;;;7.38;94.28;97363.84;5071944;28;20024;-76
2021/04/28 00:05:56;;;;;;;20.42;13.52;;;;;;;7.28;94.80;97367.50;5071917;28;20020;-75
2021/04/28 00:08:22;;;;;;;21.58;14.10;;;;;;;7.33;94.93;97378.31;5071704;28;20021;-76
2021/04/28 00:10:47;;;;;;;19.77;13.93;;;;;;;7.30;95.04;97367.22;5072046;28;20028;-74
2021/04/28 00:13:16;;;;;;;21.15;13.48;;;;;;;7.29;95.33;97369.13;5071513;28;20024;-76
2021/04/28 00:15:45;;;;;;;20.02;14.32;;;;;;;7.40;95.19;97372.53;5072148;28;20021;-77
2021/04/28 00:18:11;;;;;;;19.83;14.52;;;;;;;7.39;94.89;97365.50;5071202;28;20028;-75
2021/04/28 00:20:39;;;;;;;17.10;12.45;;;;;;;7.45;94.27;97364.31;5070230;28;20122;-75
2021/04/28 00:23:05;;;;;;;18.88;14.35;;;;;;;7.49;94.15;97365.34;5061935;28;20555;-75
2021/04/28 00:25:31;;;;;;;22.70;17.17;;;;;;;7.62;93.17;97361.13;5070055;28;20040;-76
2021/04/28 00:27:57;;;;;;;18.52;14.15;;;;;;;7.58;93.24;97351.94;5072327;28;20025;-76
2021/04/28 00:30:22;;;;;;;20.77;12.98;;;;;;;7.46;93.61;97347.69;5071326;28;20025;-75
2021/04/28 00:32:50;;;;;;;18.27;13.90;;;;;;;7.37;94.25;97354.06;5072696;28;20430;-76
2021/04/28 00:35:17;;;;;;;19.33;14.25;;;;;;;7.34;94.48;97355.47;5071685;28;20511;-75
2021/04/28 00:37:42;;;;;;;18.75;15.25;;;;;;;7.35;94.35;97354.38;5067655;28;20435;-75
2021/04/28 00:40:14;;;;;;;17.35;13.10;;;;;;;7.44;93.89;97341.75;5071857;28;20028;-75
2021/04/28 00:42:42;;;;;;;20.75;15.32;;;;;;;7.36;93.89;97345.09;5072118;28;20028;-75
2021/04/28 00:45:09;;;;;;;18.70;13.43;;;;;;;7.29;94.54;97339.22;5072137;28;20043;-75
2021/04/28 00:47:35;;;;;;;16.88;12.00;;;;;;;7.30;94.79;97346.25;5071434;28;20089;-75
2021/04/28 00:50:00;;;;;;;20.67;14.98;;;;;;;7.24;94.95;97336.53;5072194;28;20485;-76
2021/04/28 00:52:26;;;;;;;17.67;14.05;;;;;;;7.34;94.51;97336.41;5069898;28;20033;-75
2021/04/28 00:54:53;;;;;;;20.52;13.43;;;;;;;7.36;94.11;97333.44;5071214;28;20481;-75
2021/04/28 00:57:18;;;;;;;16.88;11.98;;;;;;;7.29;94.35;97341.13;5069734;28;20101;-76
2021/04/28 00:59:45;;;;;;;19.15;14.63;;;;;;;7.27;94.07;97335.94;5069046;28;20091;-75
2021/04/28 01:02:10;;;;;;;17.23;13.10;;;;;;;7.29;94.25;97341.94;5070045;28;20032;-75
2021/04/28 01:04:36;;;;;;;19.35;14.23;;;;;;;7.30;94.36;97345.47;5070031;28;20020;-76
2021/04/28 01:07:04;;;;;;;16.70;13.73;;;;;;;7.29;94.57;97341.94;5086464;28;20044;-76
2021/04/28 01:09:30;;;;;;;20.65;13.82;;;;;;;7.26;94.59;97339.78;5086649;28;20115;-75
2021/04/28 01:11:56;;;;;;;20.83;14.77;;;;;;;7.32;94.38;97351.41;5069764;28;20103;-76
2021/04/28 01:14:21;;;;;;;19.27;15.05;;;;;;;7.31;94.34;97342.44;5069928;28;20158;-75
2021/04/28 01:16:47;;;;;;;20.33;14.63;;;;;;;7.37;94.24;97346.72;5072235;28;20024;-76
2021/04/28 01:19:13;;;;;;;16.75;12.95;;;;;;;7.40;94.23;97339.88;5070524;28;20025;-75
2021/04/28 01:21:40;;;;;;;20.88;15.27;;;;;;;7.34;94.48;97330.16;5072467;28;20029;-75
2021/04/28 01:24:06;;;;;;;20.30;14.73;;;;;;;7.37;94.42;97340.47;5071090;28;20036;-85
2021/04/28 01:26:33;;;;;;;19.65;15.30;;;;;;;7.34;94.30;97333.69;5071335;28;20359;-75
2021/04/28 01:29:00;;;;;;;18.08;13.88;;;;;;;7.40;94.06;97332.53;5071268;28;20047;-77
2021/04/28 01:31:29;;;;;;;20.23;15.50;;;;;;;7.37;94.55;97335.03;5069408;28;20477;-75
2021/04/28 01:33:58;;;;;;;18.27;13.18;;;;;;;7.36;94.62;97326.03;5070442;28;20245;-75
2021/04/28 01:36:28;;;;;;;18.42;14.25;;;;;;;7.33;94.48;97323.91;5069456;28;20024;-76
2021/04/28 01:38:56;;;;;;;18.50;13.27;;;;;;;7.43;94.12;97328.41;5070543;28;20028;-77
2021/04/28 01:41:23;;;;;;;19.60;14.15;;;;;;;7.43;93.89;97329.25;5070279;28;20038;-75
2021/04/28 01:43:50;;;;;;;18.83;14.65;;;;;;;7.42;94.06;97333.03;5070139;28;20024;-76
2021/04/28 01:46:17;;;;;;;20.48;15.60;;;;;;;7.44;94.15;97332.78;5070609;28;20109;-75
2021/04/28 01:48:45;;;;;;;20.40;14.60;;;;;;;7.44;94.15;97325.41;5070782;28;20069;-75
2021/04/28 01:51:13;;;;;;;17.73;14.00;;;;;;;7.38;94.56;97310.25;5069354;28;20119;-76
2021/04/28 01:53:39;;;;;;;22.85;14.43;;;;;;;7.45;94.45;97316.16;5068327;28;20017;-75
2021/04/28 01:56:05;;;;;;;21.15;15.45;;;;;;;7.45;94.61;97316.16;5070707;28;20481;-75
2021/04/28 01:58:31;;;;;;;19.65;14.57;;;;;;;7.55;94.43;97316.03;5069371;28;20031;-76
2021/04/28 02:00:58;;;;;;;16.80;14.27;;;;;;;7.45;94.08;97310.72;5070556;28;20036;-75
2021/04/28 02:03:26;;;;;;;18.70;13.70;;;;;;;7.49;94.00;97314.47;5069826;28;20029;-74
2021/04/28 02:05:52;;;;;;;25.80;14.60;;;;;;;7.52;93.71;97321.22;5070848;28;20028;-78
2021/04/28 02:08:19;;;;;;;21.08;15.75;;;;;;;7.63;92.58;97308.31;5069352;28;20052;-76
2021/04/28 02:10:45;;;;;;;21.42;14.00;;;;;;;7.56;92.59;97305.94;5070213;28;20094;-75
2021/04/28 02:13:13;;;;;;;20.65;14.07;;;;;;;7.54;92.79;97303.53;5068401;28;20135;-74
2021/04/28 02:15:39;;;;;;;16.00;13.15;;;;;;;7.52;92.48;97305.72;5069318;28;20487;-75
2021/04/28 02:18:07;;;;;;;21.30;13.35;;;;;;;7.60;92.53;97298.84;5070125;28;20028;-76
2021/04/28 02:20:33;;;;;;;18.20;14.30;;;;;;;7.72;91.59;97301.13;5073373;28;20024;-76
2021/04/28 02:23:02;;;;;;;21.85;15.93;;;;;;;7.46;91.98;97282.41;5072586;28;20070;-75
2021/04/28 02:25:27;;;;;;;22.95;15.93;;;;;;;7.57;91.89;97298.59;5073368;28;20059;-75
2021/04/28 02:27:53;;;;;;;20.05;14.95;;;;;;;7.52;92.35;97297.56;5073424;28;20074;-75
2021/04/28 02:30:21;;;;;;;23.40;14.93;;;;;;;7.49;92.35;97286.44;5072799;28;20473;-76
2021/04/28 02:32:49;;;;;;;20.85;16.10;;;;;;;7.57;92.59;97290.44;5073415;28;20029;-75
2021/04/28 02:35:15;;;;;;;24.92;17.23;;;;;;;7.50;92.38;97296.22;5075448;28;20469;-75
2021/04/28 02:37:42;;;;;;;22.42;15.63;;;;;;;7.66;91.72;97286.78;5073583;28;20032;-76
2021/04/28 02:40:13;;;;;;;23.98;16.80;;;;;;;7.54;92.06;97284.50;5073942;28;20032;-74
2021/04/28 02:42:46;;;;;;;23.83;15.02;;;;;;;7.50;92.55;97291.59;5074309;28;20036;-76
2021/04/28 02:45:15;;;;;;;22.75;14.52;;;;;;;7.57;92.32;97276.84;5072240;28;20037;-74
2021/04/28 02:47:42;;;;;;;20.48;15.27;;;;;;;7.51;92.58;97266.03;5089790;28;20043;-74
2021/04/28 02:50:10;;;;;;;22.83;16.33;;;;;;;7.41;92.83;97266.16;5074079;28;20362;-75
2021/04/28 02:52:36;;;;;;;23.50;14.90;;;;;;;7.46;93.13;97274.25;5073932;28;20385;-75
2021/04/28 02:55:04;;;;;;;26.73;16.13;;;;;;;7.50;93.03;97274.47;5072737;28;20032;-75
2021/04/28 02:57:31;;;;;;;23.02;16.98;;;;;;;7.33;93.38;97260.56;5074406;28;20086;-77
2021/04/28 02:59:58;;;;;;;22.55;15.15;;;;;;;7.26;93.96;97263.63;5073392;28;20044;-75
2021/04/28 03:02:23;;;;;;;18.42;14.25;;;;;;;7.19;93.72;97251.47;5073008;28;20024;-75
2021/04/28 03:04:51;;;;;;;24.63;16.63;;;;;;;7.24;93.50;97265.81;5072868;28;20032;-74
2021/04/28 03:07:16;;;;;;;24.77;16.95;;;;;;;7.28;93.92;97272.28;5071901;28;20039;-75
2021/04/28 03:09:43;;;;;;;21.27;15.38;;;;;;;7.32;93.82;97273.34;5089367;28;20501;-76
2021/04/28 03:12:16;;;;;;;23.67;16.42;;;;;;;7.31;94.08;97269.00;5071712;28;20028;-75
2021/04/28 03:14:42;;;;;;;21.52;14.63;;;;;;;7.35;93.66;97256.44;5071971;28;20029;-79
2021/04/28 03:17:08;;;;;;;25.05;16.58;;;;;;;7.54;92.72;97273.59;5073638;28;20116;-75
2021/04/28 03:19:36;;;;;;;23.20;15.90;;;;;;;7.61;92.07;97278.69;5074465;28;20024;-76
2021/04/28 03:22:02;;;;;;;23.92;16.02;;;;;;;7.55;92.14;97264.31;5073184;28;20020;-74
2021/04/28 03:24:27;;;;;;;24.73;15.95;;;;;;;7.60;92.10;97278.97;5072358;28;20181;-74
2021/04/28 03:26:56;;;;;;;21.73;14.48;;;;;;;7.51;92.55;97259.78;5073477;28;20040;-75
2021/04/28 03:29:22;;;;;;;19.33;14.63;;;;;;;7.53;92.55;97274.69;5072555;28;20425;-76
2021/04/28 03:31:47;;;;;;;21.83;15.30;;;;;;;7.51;92.80;97270.66;5073201;28;20150;-74
2021/04/28 03:34:13;;;;;;;24.88;16.10;;;;;;;7.41;93.11;97279.75;5073793;28;20111;-76
2021/04/28 03:36:39;;;;;;;22.73;15.07;;;;;;;7.43;93.49;97276.72;5073305;28;20393;-74
2021/04/28 03:39:05;;;;;;;23.08;15.35;;;;;;;7.47;93.75;97277.78;5073962;28;20421;-75
2021/04/28 03:41:31;;;;;;;21.85;14.90;;;;;;;7.49;93.36;97279.09;5072637;28;20142;-76
2021/04/28 03:43:56;;;;;;;21.50;14.23;;;;;;;7.57;93.30;97279.56;5077602;28;20080;-78
2021/04/28 03:46:22;;;;;;;23.67;15.45;;;;;;;7.37;93.47;97247.97;5077131;28;20020;-76
2021/04/28 03:48:47;;;;;;;23.50;14.32;;;;;;;7.43;93.64;97280.25;5073074;28;20393;-75
2021/04/28 03:51:13;;;;;;;21.40;15.63;;;;;;;7.60;93.05;97287.13;5068290;28;20035;-74
2021/04/28 03:53:39;;;;;;;22.60;16.50;;;;;;;7.48;93.38;97282.94;5061845;28;20035;-75
2021/04/28 03:56:05;;;;;;;23.48;15.95;;;;;;;7.46;93.88;97281.59;5060557;28;20029;-77
2021/04/28 03:58:30;;;;;;;26.52;16.88;;;;;;;7.39;94.36;97276.50;5071799;28;20072;-75
2021/04/28 04:00:56;;;;;;;24.88;17.08;;;;;;;7.37;94.96;97286.88;5060566;28;20029;-78
2021/04/28 04:03:21;;;;;;;23.60;16.48;;;;;;;7.30;95.08;97275.53;5051018;28;20029;-74
2021/04/28 04:05:47;;;;;;;27.15;18.13;;;;;;;7.32;95.49;97281.50;5068388;28;20104;-75
2021/04/28 04:08:12;;;;;;;24.80;16.95;;;;;;;7.34;95.64;97287.44;5059639;28;20121;-75
2021/04/28 04:10:38;;;;;;;25.92;15.77;;;;;;;7.34;95.67;97279.28;5072535;28;20031;-75
2021/04/28 04:13:03;;;;;;;24.42;17.05;;;;;;;7.45;95.43;97288.97;5072363;28;20099;-76
2021/04/28 04:15:28;;;;;;;22.48;17.23;;;;;;;7.50;94.77;97280.72;5071253;28;20048;-75
2021/04/28 04:17:54;;;;;;;27.00;18.85;;;;;;;7.38;95.00;97272.19;5071376;28;20017;-75
2021/04/28 04:20:19;;;;;;;35.35;20.30;;;;;;;7.31;95.45;97276.34;5074807;28;20032;-75
2021/04/28 04:22:45;;;;;;;29.83;18.67;;;;;;;7.39;95.85;97287.38;5072815;28;20021;-75
2021/04/28 04:25:10;;;;;;;32.35;19.20;;;;;;;7.43;95.30;97276.72;5071387;28;20028;-75
2021/04/28 04:27:36;;;;;;;26.42;18.52;;;;;;;7.37;95.72;97281.44;5071762;28;20084;-76
2021/04/28 04:30:05;;;;;;;24.95;17.70;;;;;;;7.63;94.82;97289.25;5070763;28;20038;-75
2021/04/28 04:32:31;;;;;;;24.23;17.83;;;;;;;7.57;94.97;97296.69;5070397;28;20033;-74
2021/04/28 04:34:56;;;;;;;26.27;17.88;;;;;;;7.52;95.19;97292.13;5071822;28;20020;-75
2021/04/28 04:37:22;;;;;;;28.27;18.05;;;;;;;7.43;95.54;97299.31;5066904;28;20119;-75
2021/04/28 04:39:47;;;;;;;24.70;17.75;;;;;;;7.35;96.10;97296.44;5085868;28;20024;-75
2021/04/28 04:42:13;;;;;;;25.98;17.55;;;;;;;7.34;96.28;97292.91;5072033;28;20105;-75
2021/04/28 04:44:39;;;;;;;26.50;17.73;;;;;;;7.37;96.42;97289.59;5072346;28;20027;-74
2021/04/28 04:47:04;;;;;;;32.80;19.40;;;;;;;7.52;96.58;97297.56;5087722;28;20029;-75
2021/04/28 04:49:30;;;;;;;29.05;20.02;;;;;;;7.42;96.97;97297.69;5072356;28;20028;-75
2021/04/28 04:51:55;;;;;;;26.25;20.08;;;;;;;7.48;96.83;97295.72;5070247;28;20025;-75
2021/04/28 04:54:21;;;;;;;25.98;18.63;;;;;;;7.49;96.93;97287.25;5070033;28;20805;-77
2021/04/28 04:56:46;;;;;;;27.38;19.88;;;;;;;7.31;97.04;97285.31;5070395;28;20041;-75
2021/04/28 04:59:12;;;;;;;34.42;19.20;;;;;;;7.48;97.38;97307.44;5072145;28;20056;-75
2021/04/28 05:01:37;;;;;;;28.77;18.75;;;;;;;7.49;97.03;97308.22;5071743;28;20085;-74
2021/04/28 05:04:03;;;;;;;23.50;17.35;;;;;;;7.68;96.57;97309.06;5088467;28;20414;-74
2021/04/28 05:06:29;;;;;;;27.30;18.23;;;;;;;7.50;96.74;97299.78;5070746;28;20021;-75
2021/04/28 05:08:54;;;;;;;24.67;19.08;;;;;;;7.42;97.65;97305.06;5069945;28;20032;-75
2021/04/28 05:11:20;;;;;;;25.23;18.08;;;;;;;7.39;98.23;97309.16;5071751;28;20445;-76
2021/04/28 05:13:45;;;;;;;27.58;18.38;;;;;;;7.34;98.47;97301.06;5071330;28;20100;-76
2021/04/28 05:16:11;;;;;;;25.33;18.73;;;;;;;7.50;97.79;97307.13;5052416;28;20036;-74
2021/04/28 05:18:36;;;;;;;29.10;19.38;;;;;;;7.51;97.50;97311.47;5052085;28;20029;-75
2021/04/28 05:21:02;;;;;;;30.48;18.15;;;;;;;7.49;97.35;97302.78;5050951;28;20036;-74
2021/04/28 05:23:28;;;;;;;29.65;20.23;;;;;;;7.53;97.16;97311.97;5051906;28;20033;-74
2021/04/28 05:25:53;;;;;;;23.48;18.25;;;;;;;7.52;96.50;97305.72;5050689;28;20023;-75
2021/04/28 05:28:18;;;;;;;26.48;18.52;;;;;;;7.68;96.22;97305.50;5050664;28;20020;-75
2021/04/28 05:30:44;;;;;;;25.50;17.80;;;;;;;7.70;95.82;97297.88;5051172;28;20095;-75
2021/04/28 05:33:09;;;;;;;25.60;16.95;;;;;;;7.71;95.55;97302.22;5051923;28;20516;-83
2021/04/28 05:35:35;;;;;;;22.33;15.52;;;;;;;7.75;95.61;97311.41;5049930;28;20051;-75
2021/04/28 05:38:01;;;;;;;21.33;16.90;;;;;;;7.86;94.90;97310.97;5051715;28;20028;-75
2021/04/28 05:40:27;;;;;;;21.52;16.42;;;;;;;7.79;94.45;97310.56;5050592;28;20033;-76
2021/04/28 05:42:53;;;;;;;22.42;16.80;;;;;;;7.83;94.74;97318.94;5051003;28;20039;-75
2021/04/28 05:45:18;;;;;;;22.92;17.52;;;;;;;7.81;95.04;97319.22;5066619;28;20012;-76
2021/04/28 05:47:44;;;;;;;28.63;18.00;;;;;;;7.78;94.95;97314.38;5069843;28;20034;-75
2021/04/28 05:50:13;;;;;;;27.23;16.58;;;;;;;7.86;95.19;97318.34;5071092;28;20067;-75
2021/04/28 05:52:39;;;;;;;20.42;15.98;;;;;;;7.89;94.93;97318.56;5071853;28;20030;-75
2021/04/28 05:55:06;;;;;;;20.20;16.15;;;;;;;7.97;94.52;97333.44;5071969;28;20111;-75
2021/04/28 05:57:32;;;;;;;22.60;15.85;;;;;;;7.95;94.22;97322.84;5072969;28;20016;-75
2021/04/28 05:59:59;;;;;;;27.02;17.15;;;;;;;8.03;94.12;97330.34;5074105;28;20067;-76
2021/04/28 06:02:26;;;;;;;22.67;16.33;;;;;;;7.93;93.51;97327.75;5075445;28;20078;-83
2021/04/28 06:04:53;;;;;;;22.08;15.80;;;;;;;7.98;93.63;97337.78;5074936;28;20041;-77
2021/04/28 06:07:18;;;;;;;27.83;17.33;;;;;;;7.96;92.61;97324.44;5070786;28;20549;-75
2021/04/28 06:09:43;;;;;;;21.00;16.02;;;;;;;7.96;93.28;97331.81;5069712;28;20052;-74
2021/04/28 06:12:09;;;;;;;21.40;15.25;;;;;;;7.91;92.57;97329.16;5069217;28;20036;-76
2021/04/28 06:14:34;;;;;;;22.95;16.55;;;;;;;7.97;93.08;97334.25;5069213;28;20471;-76
2021/04/28 06:17:03;;;;;;;20.25;13.90;;;;;;;8.09;92.24;97322.91;5070461;28;20477;-74
2021/04/28 06:19:29;;;;;;;24.17;16.88;;;;;;;8.17;91.07;97337.78;5070395;28;20060;-76
2021/04/28 06:21:54;;;;;;;20.55;13.57;;;;;;;8.13;90.85;97344.91;5070794;28;20417;-76
2021/04/28 06:24:20;;;;;;;21.75;15.65;;;;;;;8.20;90.78;97332.56;5064461;28;20024;-75
2021/04/28 06:26:46;;;;;;;17.67;13.73;;;;;;;8.33;90.22;97337.28;5069018;28;20040;-75
2021/04/28 06:29:11;;;;;;;21.30;15.30;;;;;;;8.20;90.47;97332.56;5069776;28;20103;-74
2021/04/28 06:31:37;;;;;;;18.40;13.32;;;;;;;8.25;91.04;97335.19;5067823;28;20104;-76
2021/04/28 06:34:03;;;;;;;19.25;13.68;;;;;;;8.30;91.32;97343.31;5070506;28;20032;-75
2021/04/28 06:36:28;;;;;;;15.52;12.23;;;;;;;8.38;90.94;97344.56;5069431;28;20082;-77
2021/04/28 06:38:55;;;;;;;17.80;13.32;;;;;;;8.43;90.94;97348.03;5070434;28;20028;-76
2021/04/28 06:41:20;;;;;;;18.30;13.05;;;;;;;8.24;90.93;97325.41;5070778;28;20029;-74
2021/04/28 06:43:45;;;;;;;16.23;13.02;;;;;;;8.35;91.32;97345.16;5068803;28;20039;-74
2021/04/28 06:46:11;;;;;;;19.50;13.57;;;;;;;8.30;91.01;97354.22;5069861;28;20537;-75
2021/04/28 06:48:38;;;;;;;19.35;12.05;;;;;;;8.23;90.69;97336.59;5084832;28;20028;-74
2021/04/28 06:51:04;;;;;;;18.02;13.77;;;;;;;8.34;90.42;97328.00;5069215;28;20077;-74
2021/04/28 06:53:29;;;;;;;17.48;12.38;;;;;;;8.38;89.96;97337.22;5069155;28;20021;-75
2021/04/28 06:55:55;;;;;;;16.48;12.35;;;;;;;8.49;89.38;97335.94;5068859;28;20495;-74
2021/04/28 06:58:21;;;;;;;17.02;13.13;;;;;;;8.50;88.66;97336.75;5069900;28;20051;-75
2021/04/28 07:00:50;;;;;;;18.55;13.30;;;;;;;8.55;88.49;97339.41;5068802;28;20048;-74
2021/04/28 07:03:16;;;;;;;20.10;12.75;;;;;;;8.58;88.23;97339.59;5069254;28;20033;-74
2021/04/28 07:05:56;;;;;;;19.40;12.95;;;;;;;8.59;87.69;97343.97;5073858;28;20024;-76
2021/04/28 07:08:21;;;;;;;18.50;12.82;;;;;;;8.73;87.35;97351.38;5063651;28;20032;-76
2021/04/28 07:10:47;;;;;;;18.55;13.00;;;;;;;8.75;87.10;97340.97;5071467;28;20031;-76
2021/04/28 07:13:12;;;;;;;15.50;11.10;;;;;;;8.86;86.43;97342.44;5065231;28;20437;-75
2021/04/28 07:15:38;;;;;;;16.35;10.57;;;;;;;9.05;85.42;97341.25;5072498;28;20630;-74
2021/04/28 07:18:04;;;;;;;14.18;11.00;;;;;;;9.17;85.10;97343.50;5072273;28;20021;-78
2021/04/28 07:20:29;;;;;;;17.60;10.45;;;;;;;9.36;84.58;97349.69;5068478;28;20041;-74
2021/04/28 07:22:57;;;;;;;14.52;10.30;;;;;;;9.20;84.87;97340.16;5068627;28;20392;-75
2021/04/28 07:25:22;;;;;;;10.05;8.45;;;;;;;9.19;85.02;97333.09;5072957;28;20549;-75
2021/04/28 07:27:48;;;;;;;13.60;8.18;;;;;;;9.03;84.96;97335.28;5072414;28;20024;-76
2021/04/28 07:30:20;;;;;;;13.30;8.70;;;;;;;9.09;84.64;97333.28;5074591;28;20504;-76
2021/04/28 07:32:45;;;;;;;11.15;8.70;;;;;;;9.03;85.70;97350.84;5072075;28;20150;-74
2021/04/28 07:35:12;;;;;;;11.35;8.90;;;;;;;9.06;85.37;97345.59;5072821;28;20146;-75
2021/04/28 07:37:38;;;;;;;12.88;10.35;;;;;;;8.93;85.70;97340.09;5072089;28;20020;-75
2021/04/28 07:40:06;;;;;;;15.77;9.93;;;;;;;9.06;85.83;97350.25;5071986;28;20067;-75
2021/04/28 07:42:32;;;;;;;15.65;10.63;;;;;;;9.08;85.08;97348.03;5069793;28;20504;-74
2021/04/28 07:44:57;;;;;;;12.50;10.60;;;;;;;9.20;84.89;97350.28;5064798;28;20028;-75
2021/04/28 07:47:23;;;;;;;13.73;9.43;;;;;;;9.18;85.37;97350.56;5072066;28;20660;-75
2021/04/28 07:49:48;;;;;;;11.80;9.45;;;;;;;9.11;85.76;97350.16;5071145;28;20463;-75
2021/04/28 07:52:14;;;;;;;13.85;10.80;;;;;;;9.12;85.29;97338.94;5072129;28;20056;-75
2021/04/28 07:54:39;;;;;;;13.25;9.88;;;;;;;9.57;83.81;97345.44;5061979;28;20074;-76
2021/04/28 07:57:05;;;;;;;10.18;8.48;;;;;;;9.36;84.90;97354.34;5071315;28;20100;-78
2021/04/28 07:59:31;;;;;;;10.20;8.43;;;;;;;9.28;84.69;97349.56;5070795;28;20469;-75
2021/04/28 08:01:59;;;;;;;11.18;9.20;;;;;;;9.39;84.56;97343.63;5069317;28;20503;-74
2021/04/28 08:04:24;;;;;;;8.77;7.80;;;;;;;9.73;83.92;97347.84;5071663;28;20068;-75
2021/04/28 08:06:53;;;;;;;18.25;9.48;;;;;;;9.83;82.82;97353.13;5071942;28;20465;-74
2021/04/28 08:09:18;;;;;;;10.77;8.18;;;;;;;9.68;83.27;97341.38;5070592;28;20046;-75
2021/04/28 08:11:44;;;;;;;9.82;7.82;;;;;;;9.89;82.50;97352.72;5071701;28;20435;-74
2021/04/28 08:14:09;;;;;;;10.65;7.63;;;;;;;9.77;83.09;97348.88;5070367;28;20448;-73
2021/04/28 08:16:35;;;;;;;10.48;9.15;;;;;;;9.81;83.54;97355.31;5071510;28;20024;-75
2021/04/28 08:19:01;;;;;;;7.63;6.03;;;;;;;9.81;83.26;97358.88;5072526;28;20025;-75
2021/04/28 08:21:27;;;;;;;8.18;6.75;;;;;;;9.88;83.67;97361.19;5071927;28;20103;-75
2021/04/28 08:23:52;;;;;;;10.32;7.70;;;;;;;10.12;81.90;97356.28;5071575;28;20119;-74
2021/04/28 08:26:18;;;;;;;11.52;7.00;;;;;;;9.89;82.96;97358.16;5072860;28;20012;-76
2021/04/28 08:28:45;;;;;;;7.63;6.75;;;;;;;9.88;83.58;97356.53;5074349;28;20531;-78
2021/04/28 08:31:14;;;;;;;11.98;7.50;;;;;;;10.09;82.97;97356.91;5075349;28;20110;-76
2021/04/28 08:33:41;;;;;;;7.13;6.35;;;;;;;10.20;82.12;97359.16;5070928;28;20037;-76
2021/04/28 08:36:07;;;;;;;8.15;6.55;;;;;;;10.41;81.11;97364.97;5069558;28;20017;-75
2021/04/28 08:38:36;;;;;;;8.52;7.47;;;;;;;10.44;81.54;97369.81;5069171;28;20024;-74
2021/04/28 08:41:04;;;;;;;9.35;6.90;;;;;;;10.40;80.49;97371.53;5068875;28;20348;-75
2021/04/28 08:43:30;;;;;;;9.35;6.70;;;;;;;10.19;81.49;97368.47;5069927;28;20032;-74
2021/04/28 08:45:55;;;;;;;8.60;6.15;;;;;;;10.33;81.03;97371.16;5069195;28;20029;-74
2021/04/28 08:48:21;;;;;;;8.93;7.30;;;;;;;10.22;81.20;97364.31;5070234;28;20028;-79
2021/04/28 08:50:48;;;;;;;14.13;8.60;;;;;;;10.28;81.09;97374.00;5069899;28;20028;-80
2021/04/28 08:53:17;;;;;;;7.85;6.60;;;;;;;10.42;80.82;97372.06;5067404;28;20028;-75
2021/04/28 08:55:46;;;;;;;8.63;6.63;;;;;;;10.12;81.96;97367.22;5067280;28;20028;-81
2021/04/28 08:58:14;;;;;;;13.10;6.72;;;;;;;10.59;80.44;97369.44;5066038;28;20084;-82
2021/04/28 09:00:40;;;;;;;7.88;6.53;;;;;;;10.76;79.47;97363.31;5064108;28;20044;-79
2021/04/28 09:03:06;;;;;;;8.15;5.72;;;;;;;10.90;78.43;97361.31;5065155;28;20048;-81
2021/04/28 09:05:38;;;;;;;7.13;5.72;;;;;;;11.45;77.26;97352.75;5070499;28;20384;-76
2021/04/28 09:08:10;;;;;;;16.40;8.55;;;;;;;11.42;76.82;97365.16;5070935;28;20021;-76
2021/04/28 09:10:37;;;;;;;8.68;5.97;;;;;;;11.08;77.62;97360.31;5075405;28;20490;-77
2021/04/28 09:13:16;;;;;;;7.70;6.13;;;;;;;11.25;77.46;97371.34;5067299;28;20024;-75
2021/04/28 09:15:49;;;;;;;7.68;6.32;;;;;;;11.11;77.41;97367.09;5065244;28;20130;-85
2021/04/28 09:18:17;;;;;;;8.65;7.25;;;;;;;10.80;78.58;97363.50;5068002;28;20488;-75
2021/04/28 09:20:52;;;;;;;7.88;6.15;;;;;;;11.01;78.83;97364.59;5070133;28;20076;-74
2021/04/28 09:23:19;;;;;;;10.75;6.15;;;;;;;10.74;79.43;97360.88;5058095;28;20176;-78
2021/04/28 09:25:46;;;;;;;11.50;6.25;;;;;;;10.83;79.44;97362.88;5068125;28;20042;-74
2021/04/28 09:28:31;;;;;;;7.50;6.20;;;;;;;11.30;78.25;97359.47;5069681;28;20575;-74
2021/04/28 09:31:05;;;;;;;6.80;5.78;;;;;;;11.50;76.50;97358.91;5067959;28;20052;-76
2021/04/28 09:33:44;;;;;;;10.13;6.15;;;;;;;11.37;77.30;97357.06;5073444;28;20025;-87
2021/04/28 09:36:11;;;;;;;6.38;5.40;;;;;;;11.09;77.44;97363.84;5074371;28;20088;-91
2021/04/28 09:39:02;;;;;;;10.45;5.80;;;;;;;10.89;78.47;97359.69;5067151;28;20028;-86
2021/04/28 09:41:45;;;;;;;5.75;5.15;;;;;;;11.05;78.34;97358.19;5074459;28;20397;-77
2021/04/28 09:44:20;;;;;;;7.78;5.63;;;;;;;10.93;78.62;97359.91;5071114;28;20052;-81
2021/04/28 09:47:19;;;;;;;10.75;7.20;;;;;;;11.12;78.05;97361.28;5077962;28;20064;-85
2021/04/28 09:49:59;;;;;;;9.45;5.75;;;;;;;11.15;77.94;97357.91;5075504;28;20075;-81
2021/04/28 09:52:31;;;;;;;5.97;5.35;;;;;;;11.37;77.30;97359.78;5069291;28;20032;-82
2021/04/28 09:55:05;;;;;;;7.35;4.85;;;;;;;11.29;77.16;97360.56;5071228;28;20074;-83
2021/04/28 09:57:41;;;;;;;8.30;4.65;;;;;;;11.28;77.00;97348.81;5071249;28;20039;-85
2021/04/28 10:00:16;;;;;;;4.88;3.80;;;;;;;11.54;75.96;97359.88;5063509;28;20044;-87
2021/04/28 10:02:42;;;;;;;6.20;4.45;;;;;;;11.42;76.44;97361.59;5070762;28;20087;-79
2021/04/28 10:05:16;;;;;;;7.85;4.60;;;;;;;11.71;75.50;97361.94;5072717;28;20032;-75
2021/04/28 10:07:42;;;;;;;7.25;4.53;;;;;;;11.55;76.31;97347.00;5068554;28;20089;-76
2021/04/28 10:10:08;;;;;;;6.95;4.50;;;;;;;11.47;76.25;97348.56;5070835;28;20480;-75
2021/04/28 10:12:34;;;;;;;4.28;3.55;;;;;;;11.56;76.31;97345.88;5070426;28;20033;-75
2021/04/28 10:14:59;;;;;;;5.22;3.90;;;;;;;11.60;75.54;97344.94;5069666;28;20029;-75
2021/04/28 10:17:26;;;;;;;4.60;3.50;;;;;;;11.66;75.51;97342.84;5068543;28;20029;-78
2021/04/28 10:19:53;;;;;;;5.47;3.63;;;;;;;11.79;74.79;97342.75;5069448;28;20636;-75
2021/04/28 10:22:20;;;;;;;5.75;4.25;;;;;;;11.48;75.75;97339.25;5068042;28;20064;-75
2021/04/28 10:24:54;;;;;;;4.78;3.50;;;;;;;11.63;74.87;97344.28;5068599;28;20020;-78
2021/04/28 10:27:20;;;;;;;4.25;2.92;;;;;;;11.76;74.56;97350.81;5065928;28;20035;-75
2021/04/28 10:29:49;;;;;;;6.75;4.07;;;;;;;11.43;75.80;97349.53;5069929;28;20037;-76
2021/04/28 10:32:16;;;;;;;5.82;2.92;;;;;;;11.35;76.11;97345.63;5069156;28;20024;-76
2021/04/28 10:34:49;;;;;;;5.03;2.78;;;;;;;11.44;75.85;97337.44;5069721;28;20032;-75
2021/04/28 10:37:18;;;;;;;3.28;2.83;;;;;;;11.59;75.03;97334.31;5071357;28;20124;-76
2021/04/28 10:39:48;;;;;;;3.78;3.05;;;;;;;11.44;75.89;97343.72;5072982;28;20107;-76
2021/04/28 10:42:34;;;;;;;5.63;2.92;;;;;;;11.13;77.39;97340.19;5073844;28;20432;-75
2021/04/28 10:45:05;;;;;;;4.35;2.95;;;;;;;11.10;77.53;97338.09;5072280;28;20028;-76
2021/04/28 10:47:33;;;;;;;4.80;3.75;;;;;;;11.16;78.34;97342.31;5070183;28;20480;-75
2021/04/28 10:49:59;;;;;;;4.93;3.90;;;;;;;11.22;78.42;97338.31;5072817;28;20032;-76
2021/04/28 10:52:36;;;;;;;5.25;3.70;;;;;;;11.45;77.40;97347.28;5071225;28;20021;-75
2021/04/28 10:55:03;;;;;;;5.43;3.95;;;;;;;11.59;76.83;97335.09;5072566;28;20020;-75
2021/04/28 10:57:39;;;;;;;9.80;3.78;;;;;;;11.67;76.47;97350.75;5071232;28;20775;-74
2021/04/28 11:00:28;;;;;;;;;;;;;;;11.96;75.29;97349.41;5070721;28;20041;-82
2021/04/28 11:02:55;;;;;;;4.95;4.13;;;;;;;11.86;74.67;97346.97;5063136;28;19916;-86
2021/04/28 11:05:39;;;;;;;4.50;3.70;;;;;;;12.27;73.31;97350.13;5076950;28;20028;-89
2021/04/28 11:08:09;;;;;;;7.35;3.85;;;;;;;12.65;71.59;97345.63;5068790;28;20027;-86
2021/04/28 11:10:36;;;;;;;3.88;2.97;;;;;;;13.21;69.47;97335.53;5072951;28;20036;-82
2021/04/28 11:13:15;;;;;;;5.28;3.38;;;;;;;13.76;66.37;97336.28;5073565;28;20035;-81
2021/04/28 11:15:54;;;;;;;3.70;2.78;;;;;;;14.20;64.72;97336.84;5071500;28;20052;-80
2021/04/28 11:18:29;;;;;;;3.75;3.38;;;;;;;14.44;64.24;97334.25;5072331;28;20477;-86
2021/04/28 11:21:12;;;;;;;4.13;3.25;;;;;;;13.97;65.60;97332.81;5072082;28;20040;-79
2021/04/28 11:24:05;;;;;;;5.60;3.05;;;;;;;13.84;66.02;97340.97;5071759;28;20502;-79
2021/04/28 11:26:33;;;;;;;4.57;2.47;;;;;;;13.75;65.90;97337.41;5072555;28;20025;-80
2021/04/28 11:28:59;;;;;;;4.55;2.58;;;;;;;13.33;66.64;97333.72;5074248;28;20476;-81
2021/04/28 11:31:49;;;;;;;2.47;2.28;;;;;;;13.22;67.80;97326.16;5075247;28;20115;-82